createdAt,value
2023-01-12T00:05:21.461Z,5
2023-01-12T00:11:13.307Z,4.8
2023-01-12T00:16:50.810Z,5
2023-01-12T00:22:07.139Z,4.9
2023-01-12T00:27:47.178Z,4.5
2023-01-12T00:33:18.716Z,4.5
2023-01-12T00:38:41.845Z,4.8
2023-01-12T00:44:12.269Z,4.9
2023-01-12T00:50:07.114Z,5.2
2023-01-12T00:55:41.052Z,5.2
2023-01-12T01:00:59.600Z,5.6
2023-01-12T01:06:43.925Z,5.4
2023-01-12T01:12:29.254Z,5.4
2023-01-12T01:18:02.759Z,5.4
2023-01-12T01:23:16.198Z,5.4
2023-01-12T01:28:51.271Z,5.3
2023-01-12T01:34:25.778Z,4.4
2023-01-12T01:40:15.172Z,4.5
2023-01-12T01:45:31.478Z,4.6
2023-01-12T01:51:15.108Z,4.7
2023-01-12T01:56:33.717Z,4.7
2023-01-12T02:02:16.024Z,4.9
2023-01-12T02:07:46.585Z,4.5
2023-01-12T02:13:25.003Z,4.9
2023-01-12T02:19:02.207Z,5.2
2023-01-12T02:24:50.257Z,5.3
2023-01-12T02:30:26.080Z,5.5
2023-01-12T02:35:39.729Z,5.6
2023-01-12T02:41:30.057Z,5.7
2023-01-12T02:46:45.120Z,5.6
2023-01-12T02:52:22.432Z,5.8
2023-01-12T02:58:17.875Z,5.7
2023-01-12T03:03:44.525Z,5.8
2023-01-12T03:09:23.045Z,5.8
2023-01-12T03:14:47.696Z,5.8
2023-01-12T03:20:34.407Z,5.8
2023-01-12T03:25:51.985Z,5.8
2023-01-12T03:31:21.974Z,5.8
2023-01-12T03:37:03.083Z,5.9
2023-01-12T03:42:56.421Z,5.9
2023-01-12T03:48:14.251Z,6.1
2023-01-12T03:53:44.060Z,6
2023-01-12T03:59:25.741Z,6.1
2023-01-12T04:04:48.292Z,6.1
2023-01-12T04:10:35.742Z,6.1
2023-01-12T04:16:15.100Z,6.1
2023-01-12T04:21:51.336Z,6.1
2023-01-12T04:27:30.163Z,6
2023-01-12T04:33:01.395Z,6.3
2023-01-12T04:38:41.672Z,6.5
2023-01-12T04:44:08.969Z,6.5
2023-01-12T04:49:56.833Z,6.4
2023-01-12T04:55:10.713Z,6.3
2023-01-12T05:00:47.215Z,6.2
2023-01-12T05:06:29.691Z,6.1
2023-01-12T05:11:51.633Z,6.2
2023-01-12T05:17:50.137Z,6.2
2023-01-12T05:23:22.552Z,6.1
2023-01-12T05:28:48.904Z,6.1
2023-01-12T05:34:25.763Z,6.1
2023-01-12T05:39:46.045Z,6.1
2023-01-12T05:45:34.214Z,6.2
2023-01-12T05:51:12.937Z,6.1
2023-01-12T06:02:08.779Z,6.1
2023-01-12T06:07:37.843Z,6
2023-01-12T06:13:37.964Z,5.9
2023-01-12T06:19:02.303Z,5.7
2023-01-12T06:24:24.118Z,5.6
2023-01-12T06:29:56.609Z,5.6
2023-01-12T06:35:52.598Z,5.7
2023-01-12T06:41:24.393Z,5.7
2023-01-12T06:46:47.301Z,5.7
2023-01-12T06:52:29.384Z,5.8
2023-01-12T06:58:05.836Z,5.8
2023-01-12T07:03:49.837Z,5.8
2023-01-12T07:09:19.663Z,5.6
2023-01-12T07:14:48.337Z,5.6
2023-01-12T07:20:33.489Z,5.6
2023-01-12T07:25:48.534Z,5.6
2023-01-12T07:31:30.352Z,5.6
2023-01-12T07:37:19.068Z,5.6
2023-01-12T07:42:50.199Z,5.5
2023-01-12T07:48:26.549Z,5.5
2023-01-12T07:53:48.867Z,5.6
2023-01-12T07:59:29.769Z,5.6
2023-01-12T08:05:12.311Z,5.6
2023-01-12T08:10:29.338Z,5.6
2023-01-12T08:16:07.951Z,5.6
2023-01-12T08:21:31.423Z,5.6
2023-01-12T08:27:18.578Z,5.6
2023-01-12T08:32:46.013Z,5.7
2023-01-12T08:38:32.616Z,5.8
2023-01-12T08:44:04.225Z,5.9
2023-01-12T08:49:53.548Z,5.9
2023-01-12T08:55:05.156Z,5.9
2023-01-12T09:00:46.630Z,6.1
2023-01-12T09:06:22.774Z,6.2
2023-01-12T09:11:45.891Z,6.3
2023-01-12T09:17:42.143Z,6.3
2023-01-12T09:23:20.928Z,6.3
2023-01-12T09:28:35.754Z,6.4
2023-01-12T09:34:16.528Z,6.6
2023-01-12T09:39:45.551Z,6.6
2023-01-12T09:45:16.313Z,6.6
2023-01-12T09:50:53.221Z,6.7
2023-01-12T09:56:25.707Z,6.7
2023-01-12T10:02:23.007Z,6.8
2023-01-12T10:07:49.020Z,6.8
2023-01-12T10:13:31.343Z,6.9
2023-01-12T10:18:53.940Z,6.8
2023-01-12T10:24:26.749Z,6.9
2023-01-12T10:30:16.587Z,7
2023-01-12T10:35:40.648Z,7.1
2023-01-12T10:41:25.606Z,7.1
2023-01-12T10:46:45.810Z,7.2
2023-01-12T10:52:37.432Z,7.1
2023-01-12T10:58:09.498Z,7.1
2023-01-12T11:03:33.725Z,7.1
2023-01-12T11:09:18.144Z,7.2
2023-01-12T11:14:51.893Z,7.2
2023-01-12T11:20:17.232Z,7.3
2023-01-12T11:25:57.844Z,7.4
2023-01-12T11:31:29.611Z,7.4
2023-01-12T11:37:16.696Z,7.5
2023-01-12T11:42:42.659Z,7.7
2023-01-12T11:48:36.437Z,7.8
2023-01-12T11:54:02.441Z,7.9
2023-01-12T11:59:41.869Z,8.3
2023-01-12T12:05:02.171Z,8.4
2023-01-12T12:10:36.682Z,8.4
2023-01-12T12:16:07.324Z,8.3
2023-01-12T12:22:07.417Z,8.2
2023-01-12T12:27:38.345Z,8.2
2023-01-12T12:33:10.969Z,8.2
2023-01-12T12:38:45.084Z,8.1
2023-01-12T12:44:02.741Z,8.1
2023-01-12T12:49:56.935Z,8.1
2023-01-12T12:55:25.352Z,8.1
2023-01-12T13:00:57.841Z,8.1
2023-01-12T13:06:45.127Z,8.1
2023-01-12T13:12:20.540Z,8.2
2023-01-12T13:17:38.614Z,8.3
2023-01-12T13:23:34.737Z,8.3
2023-01-12T13:28:51.883Z,8.3
2023-01-12T13:34:34.707Z,8.4
2023-01-12T13:40:24.239Z,8.4
2023-01-12T13:45:34.932Z,8.4
2023-01-12T13:51:20.220Z,8.4
2023-01-12T13:56:45.967Z,8.5
2023-01-12T14:02:41.144Z,8.5
2023-01-12T14:08:05.523Z,8.4
2023-01-12T14:13:32.867Z,8.3
2023-01-12T14:19:14.139Z,8.3
2023-01-12T14:25:02.723Z,8.3
2023-01-12T14:30:26.152Z,8.2
2023-01-12T14:35:53.845Z,8.2
2023-01-12T14:41:46.513Z,8.2
2023-01-12T14:47:21.310Z,8.2
2023-01-12T14:52:34.118Z,8.2
2023-01-12T14:58:28.100Z,8.2
2023-01-12T15:04:01.817Z,8.2
2023-01-12T15:09:39.028Z,8.2
2023-01-12T15:14:54.502Z,8.2
2023-01-12T15:20:41.160Z,8.2
2023-01-12T15:26:22.599Z,8
2023-01-12T15:32:04.287Z,8
2023-01-12T15:37:27.225Z,8
2023-01-12T15:43:17.777Z,8
2023-01-12T15:48:40.115Z,8
2023-01-12T15:54:13.039Z,8
2023-01-12T15:59:35.088Z,7.9
2023-01-12T16:05:27.233Z,7.7
2023-01-12T16:10:49.014Z,7.6
2023-01-12T16:16:33.805Z,7.5
2023-01-12T16:21:58.794Z,7.6
2023-01-12T16:27:44.751Z,7.5
2023-01-12T16:33:14.171Z,7.5
2023-01-12T16:38:41.419Z,7.4
2023-01-12T16:44:33.209Z,7.5
2023-01-12T16:50:03.186Z,7.4
2023-01-12T16:55:39.080Z,7.4
2023-01-12T17:01:11.410Z,7.4
2023-01-12T17:06:43.099Z,7.4
2023-01-12T17:12:25.557Z,7.2
2023-01-12T17:18:04.308Z,7.2
2023-01-12T17:23:18.047Z,7.3
2023-01-12T17:29:09.018Z,7.3
2023-01-12T17:34:34.702Z,7.5
2023-01-12T17:40:28.023Z,7.5
2023-01-12T17:45:46.945Z,7.5
2023-01-12T17:51:31.826Z,7.4
2023-01-12T17:57:00.796Z,7.4
2023-01-12T18:02:24.569Z,7.3
2023-01-12T18:08:01.790Z,7.2
2023-01-12T18:13:54.437Z,7.2
2023-01-12T18:19:20.589Z,7.2
2023-01-12T18:24:50.023Z,7.2
2023-01-12T18:30:32.654Z,7.2
2023-01-12T18:36:07.701Z,7
2023-01-12T18:41:48.266Z,7.1
2023-01-12T18:47:21.898Z,7.2
2023-01-12T18:53:00.057Z,7.2
2023-01-12T18:58:17.729Z,7.3
2023-01-12T19:04:03.344Z,7.5
2023-01-12T19:09:23.434Z,7.4
2023-01-12T19:14:59.976Z,7.4
2023-01-12T19:20:34.444Z,7.4
2023-01-12T19:26:19.444Z,7.4
2023-01-12T19:31:45.710Z,7
2023-01-12T19:37:38.884Z,6.5
2023-01-12T19:43:14.558Z,6.8
2023-01-12T19:48:38.512Z,7
2023-01-12T19:54:11.592Z,6.4
2023-01-12T19:59:41.101Z,6.3
2023-01-12T20:05:28.733Z,6.3
2023-01-12T20:10:58.023Z,6.1
2023-01-12T20:16:18.125Z,5.8
2023-01-12T20:22:03.617Z,5.9
2023-01-12T20:27:35.915Z,5.9
2023-01-12T20:33:08.591Z,6.4
2023-01-12T20:38:55.141Z,6.2
2023-01-12T20:44:18.589Z,6.4
2023-01-12T20:49:40.514Z,6.2
2023-01-12T20:55:18.616Z,6
2023-01-12T21:00:54.773Z,5.9
2023-01-12T21:06:29.731Z,5.8
2023-01-12T21:11:58.133Z,5.9
2023-01-12T21:17:26.822Z,6.3
2023-01-12T21:23:12.061Z,6.4
2023-01-12T21:28:47.638Z,6.4
2023-01-12T21:34:32.668Z,6.2
2023-01-12T21:39:49.738Z,6.5
2023-01-12T21:45:22.511Z,6.4
2023-01-12T21:51:16.057Z,6.6
2023-01-12T21:56:49.970Z,6.3
2023-01-12T22:01:57.750Z,6.5
2023-01-12T22:07:45.169Z,6.6
2023-01-12T22:13:16.323Z,6.6
2023-01-12T22:18:47.201Z,6.5
2023-01-12T22:24:30.631Z,6.7
2023-01-12T22:29:59.086Z,6.5
2023-01-12T22:35:48.181Z,6.8
2023-01-12T22:40:57.698Z,6.8
2023-01-12T22:46:42.717Z,6.8
2023-01-12T22:52:22.642Z,6.8
2023-01-12T22:57:56.191Z,6.8
2023-01-12T23:03:16.149Z,6.7
2023-01-12T23:08:55.132Z,6.4
2023-01-12T23:14:46.090Z,6.4
2023-01-12T23:20:03.292Z,6.6
2023-01-12T23:25:38.580Z,6.8
2023-01-12T23:31:20.249Z,6.9
2023-01-12T23:36:51.697Z,7
2023-01-12T23:42:16.389Z,7.2
2023-01-12T23:48:18.686Z,7.4
2023-01-12T23:53:53.818Z,7.4
2023-01-12T23:59:03.548Z,7.4
